createdAt,value
2022-11-04T00:00:33.177Z,99064.75
2022-11-04T00:03:05.986Z,99063.13
2022-11-04T00:05:35.919Z,99055.28
2022-11-04T00:08:21.490Z,99061.28
2022-11-04T00:11:16.829Z,99051.38
2022-11-04T00:13:49.735Z,99063.28
2022-11-04T00:16:37.435Z,99075.34
2022-11-04T00:19:07.116Z,99058.16
2022-11-04T00:21:52.876Z,99047.28
2022-11-04T00:24:38.227Z,99055.28
2022-11-04T00:27:26.844Z,99057.94
2022-11-04T00:29:56.406Z,99069.00
2022-11-04T00:32:42.478Z,99060.44
2022-11-04T00:35:15.267Z,99056.16
2022-11-04T00:37:51.124Z,99051.81
2022-11-04T00:40:21.379Z,99049.59
2022-11-04T00:42:50.906Z,99049.41
2022-11-04T00:45:20.618Z,99018.38
2022-11-04T00:47:47.678Z,99032.19
2022-11-04T00:50:17.720Z,99040.16
2022-11-04T00:52:47.214Z,99048.31
2022-11-04T00:55:34.822Z,99070.09
2022-11-04T00:58:01.881Z,99036.22
2022-11-04T01:00:29.479Z,99066.59
2022-11-04T01:02:59.784Z,99033.16
2022-11-04T01:05:32.649Z,99035.47
2022-11-04T01:09:45.797Z,99026.41
2022-11-04T01:11:02.601Z,99031.19
2022-11-04T01:13:29.642Z,99020.31
2022-11-04T01:16:06.723Z,99058.44
2022-11-04T01:18:35.825Z,99047.78
2022-11-04T01:21:05.522Z,99028.72
2022-11-04T01:23:43.351Z,99015.81
2022-11-04T01:26:19.283Z,99018.66
2022-11-04T01:28:49.951Z,99032.59
2022-11-04T01:31:24.884Z,99013.06
2022-11-04T01:33:55.289Z,99028.94
2022-11-04T01:36:24.991Z,99050.44
2022-11-04T01:38:54.269Z,99020.47
2022-11-04T01:41:32.932Z,99038.69
2022-11-04T01:44:02.411Z,99040.75
2022-11-04T01:46:49.597Z,99039.31
2022-11-04T01:49:30.807Z,99040.31
2022-11-04T01:52:31.030Z,99036.41
2022-11-04T01:55:02.299Z,99042.53
2022-11-04T01:57:40.483Z,99030.84
2022-11-04T02:00:15.052Z,99030.06
2022-11-04T02:03:07.849Z,99049.72
2022-11-04T02:05:37.749Z,99029.84
2022-11-04T02:08:09.617Z,99038.66
2022-11-04T02:10:47.995Z,99031.88
2022-11-04T02:13:15.300Z,99043.78
2022-11-04T02:16:13.323Z,99039.69
2022-11-04T02:18:52.278Z,99038.25
2022-11-04T02:21:31.077Z,99055.56
2022-11-04T02:24:22.629Z,99044.09
2022-11-04T02:27:27.510Z,99044.91
2022-11-04T02:30:17.358Z,99042.91
2022-11-04T02:32:50.301Z,99039.03
2022-11-04T02:35:39.106Z,99040.47
2022-11-04T02:38:30.196Z,99038.84
2022-11-04T02:41:07.444Z,99049.47
2022-11-04T02:43:48.626Z,99047.22
2022-11-04T02:46:37.368Z,99035.56
2022-11-04T02:49:15.901Z,99034.16
2022-11-04T02:51:57.415Z,99031.06
2022-11-04T02:54:48.988Z,99031.06
2022-11-04T02:57:22.439Z,99027.56
2022-11-04T03:00:04.591Z,99054.59
2022-11-04T03:02:38.423Z,99018.13
2022-11-04T03:05:08.441Z,99019.59
2022-11-04T03:07:39.779Z,99030.84
2022-11-04T03:10:16.925Z,99032.28
2022-11-04T03:12:50.715Z,99040.69
2022-11-04T03:15:27.092Z,99041.28
2022-11-04T03:18:04.435Z,99030.84
2022-11-04T03:20:31.873Z,99038.84
2022-11-04T03:23:00.407Z,99031.88
2022-11-04T03:25:36.890Z,99025.25
2022-11-04T03:28:15.799Z,99020.75
2022-11-04T03:30:47.830Z,99026.28
2022-11-04T03:33:24.919Z,99037.75
2022-11-04T03:35:56.686Z,99025.88
2022-11-04T03:38:24.214Z,98983.00
2022-11-04T03:40:52.197Z,99012.28
2022-11-04T03:43:26.117Z,99037.94
2022-11-04T03:45:54.725Z,99009.00
2022-11-04T03:48:23.017Z,99034.66
2022-11-04T03:50:51.298Z,99019.47
2022-11-04T03:53:23.518Z,99044.06
2022-11-04T03:56:06.681Z,99018.25
2022-11-04T03:58:34.001Z,99036.72
2022-11-04T04:01:11.228Z,99025.38
2022-11-04T04:03:50.216Z,99043.03
2022-11-04T04:06:23.669Z,99042.81
2022-11-04T04:08:56.080Z,99050.78
2022-11-04T04:11:39.374Z,99042.78
2022-11-04T04:14:10.672Z,99036.16
2022-11-04T04:16:43.634Z,99037.44
2022-11-04T04:19:24.353Z,99024.53
2022-11-04T04:22:01.675Z,99047.94
2022-11-04T04:24:58.765Z,99022.94
2022-11-04T04:27:32.770Z,99038.72
2022-11-04T04:30:09.694Z,99026.84
2022-11-04T04:32:53.955Z,99036.06
2022-11-04T04:35:42.442Z,99033.81
2022-11-04T04:38:42.645Z,99053.72
2022-11-04T04:41:36.744Z,99048.59
2022-11-04T04:44:29.997Z,99066.47
2022-11-04T04:46:58.515Z,99043.69
2022-11-04T04:49:35.281Z,99057.03
2022-11-04T04:52:04.689Z,99060.88
2022-11-04T04:54:31.700Z,99053.69
2022-11-04T04:56:58.643Z,99051.66
2022-11-04T04:59:25.610Z,99061.53
2022-11-04T05:01:52.871Z,99063.19
2022-11-04T05:04:19.860Z,99055.94
2022-11-04T05:06:46.805Z,99069.03
2022-11-04T05:09:13.709Z,99042.78
2022-11-04T05:14:47.869Z,99061.66
2022-11-04T05:17:15.761Z,99063.72
2022-11-04T05:19:42.815Z,99071.88
2022-11-04T05:22:11.744Z,99065.91
2022-11-04T05:24:38.761Z,99076.81
2022-11-04T05:27:05.715Z,99089.94
2022-11-04T05:29:32.707Z,99087.28
2022-11-04T05:31:59.620Z,99088.09
2022-11-04T05:34:26.611Z,99068.84
2022-11-04T05:36:53.746Z,99073.16
2022-11-04T05:39:20.890Z,99076.03
2022-11-04T05:41:47.891Z,99093.13
2022-11-04T05:44:15.903Z,99067.09
2022-11-04T05:46:42.980Z,99079.84
2022-11-04T05:49:15.474Z,99082.94
2022-11-04T05:51:45.736Z,99087.44
2022-11-04T05:54:12.697Z,99086.44
2022-11-04T05:56:39.797Z,99088.94
2022-11-04T05:59:06.726Z,99089.16
2022-11-04T06:01:36.517Z,99078.94
2022-11-04T06:04:05.460Z,99078.50
2022-11-04T06:06:36.927Z,99066.03
2022-11-04T06:09:04.060Z,99079.56
2022-11-04T06:11:31.666Z,99091.94
2022-11-04T06:13:58.804Z,99085.19
2022-11-04T06:16:27.234Z,99085.78
2022-11-04T06:18:54.705Z,99077.38
2022-11-04T06:21:33.648Z,99101.59
2022-11-04T06:24:00.809Z,99093.41
2022-11-04T06:26:30.923Z,99090.97
2022-11-04T06:28:58.060Z,99099.19
2022-11-04T06:31:25.062Z,99100.63
2022-11-04T06:33:52.060Z,99089.94
2022-11-04T06:36:19.277Z,99074.94
2022-11-04T06:38:46.438Z,99102.47
2022-11-04T06:41:20.902Z,99095.69
2022-11-04T06:43:48.255Z,99095.09
2022-11-04T06:46:26.466Z,99095.28
2022-11-04T06:48:54.002Z,99105.56
2022-11-04T06:51:21.137Z,99108.00
2022-11-04T06:53:51.653Z,99093.44
2022-11-04T06:56:20.901Z,99119.53
2022-11-04T06:58:49.463Z,99080.72
2022-11-04T07:01:21.738Z,99113.34
2022-11-04T07:03:51.139Z,99114.41
2022-11-04T07:06:22.058Z,99108.88
2022-11-04T07:09:19.993Z,99117.91
2022-11-04T07:11:47.923Z,99099.84
2022-11-04T07:14:14.939Z,99095.53
2022-11-04T07:16:51.617Z,99105.81
2022-11-04T07:19:19.199Z,99123.47
2022-11-04T07:21:46.193Z,99094.50
2022-11-04T07:24:13.423Z,99115.44
2022-11-04T07:26:44.288Z,99128.16
2022-11-04T07:29:11.714Z,99120.81
2022-11-04T07:31:40.076Z,99100.47
2022-11-04T07:34:07.468Z,99107.66
2022-11-04T07:36:34.423Z,99080.38
2022-11-04T07:39:02.173Z,99094.13
2022-11-04T07:41:29.736Z,99092.06
2022-11-04T07:43:59.015Z,99102.75
2022-11-04T07:46:26.016Z,99114.00
2022-11-04T07:48:52.986Z,99109.88
2022-11-04T07:51:21.197Z,99118.31
2022-11-04T07:53:48.212Z,99107.63
2022-11-04T07:56:19.677Z,99096.94
2022-11-04T07:58:46.710Z,99113.97
2022-11-04T08:01:17.162Z,99123.00
2022-11-04T08:03:44.758Z,99121.13
2022-11-04T08:06:15.374Z,99116.81
2022-11-04T08:08:45.808Z,99120.31
2022-11-04T08:11:17.615Z,99119.28
2022-11-04T08:13:45.919Z,99120.53
2022-11-04T08:16:19.128Z,99124.88
2022-11-04T08:18:48.704Z,99126.94
2022-11-04T08:21:17.134Z,99132.50
2022-11-04T08:23:44.605Z,99107.63
2022-11-04T08:26:13.533Z,99123.84
2022-11-04T08:28:40.694Z,99090.59
2022-11-04T08:31:14.432Z,99112.16
2022-11-04T08:33:41.359Z,99111.53
2022-11-04T08:36:15.046Z,99116.88
2022-11-04T08:38:41.973Z,99114.19
2022-11-04T08:41:10.486Z,99102.91
2022-11-04T08:43:37.990Z,99106.81
2022-11-04T08:46:10.206Z,99105.78
2022-11-04T08:48:38.770Z,99099.81
2022-11-04T08:51:10.867Z,99115.44
2022-11-04T08:53:38.084Z,99120.16
2022-11-04T08:56:18.295Z,99103.72
2022-11-04T08:58:45.765Z,99113.16
2022-11-04T09:01:13.000Z,99107.63
2022-11-04T09:03:41.810Z,99107.81
2022-11-04T09:06:12.773Z,99103.72
2022-11-04T09:08:40.265Z,99106.81
2022-11-04T09:11:15.469Z,99094.69
2022-11-04T09:13:44.203Z,99089.78
2022-11-04T09:16:14.149Z,99112.97
2022-11-04T09:18:41.656Z,99109.47
2022-11-04T09:21:10.673Z,99107.00
2022-11-04T09:23:38.489Z,99107.84
2022-11-04T09:26:11.344Z,99117.91
2022-11-04T09:28:38.802Z,99096.56
2022-11-04T09:31:10.362Z,99069.69
2022-11-04T09:33:37.802Z,99119.31
2022-11-04T09:36:05.047Z,99101.25
2022-11-04T09:38:32.449Z,99111.28
2022-11-04T09:41:00.115Z,99096.50
2022-11-04T09:43:26.989Z,99107.56
2022-11-04T09:45:56.805Z,99112.69
2022-11-04T09:48:28.861Z,99100.38
2022-11-04T09:51:00.634Z,99094.63
2022-11-04T09:53:37.782Z,99081.50
2022-11-04T09:56:17.216Z,99080.44
2022-11-04T09:58:44.464Z,99120.91
2022-11-04T10:01:28.273Z,99099.09
2022-11-04T10:04:01.603Z,99106.03
2022-11-04T10:07:05.809Z,99107.06
2022-11-04T10:09:54.172Z,99108.09
2022-11-04T10:12:39.696Z,99101.34
2022-11-04T10:15:34.545Z,99109.81
2022-11-04T10:18:35.603Z,99110.84
2022-11-04T10:21:19.069Z,99113.50
2022-11-04T10:23:53.814Z,99102.41
2022-11-04T10:27:00.734Z,99106.31
2022-11-04T10:29:36.746Z,99111.88
2022-11-04T10:32:19.455Z,99113.53
2022-11-04T10:35:00.929Z,99099.19
2022-11-04T10:37:28.490Z,99097.16
2022-11-04T10:40:15.749Z,99113.31
2022-11-04T10:42:42.972Z,99101.59
2022-11-04T10:45:14.147Z,99104.88
2022-11-04T10:47:56.707Z,99075.97
2022-11-04T10:50:42.370Z,99094.19
2022-11-04T10:53:29.454Z,99097.91
2022-11-04T10:56:33.910Z,99102.00
2022-11-04T10:59:20.215Z,99117.66
2022-11-04T11:01:58.633Z,99096.50
2022-11-04T11:04:27.816Z,99115.63
2022-11-04T11:06:57.138Z,99102.47
2022-11-04T11:09:33.711Z,99102.69
2022-11-04T11:12:29.560Z,99100.03
2022-11-04T11:14:58.548Z,99100.88
2022-11-04T11:17:47.157Z,99098.38
2022-11-04T11:20:15.171Z,99102.28
2022-11-04T11:22:44.088Z,99095.72
2022-11-04T11:25:36.077Z,99104.34
2022-11-04T11:28:11.242Z,99112.97
2022-11-04T11:30:44.567Z,99107.38
2022-11-04T11:33:31.190Z,99100.59
2022-11-04T11:36:23.261Z,99118.88
2022-11-04T11:38:55.143Z,99108.78
2022-11-04T11:41:31.709Z,99104.69
2022-11-04T11:44:23.557Z,99105.75
2022-11-04T11:46:56.658Z,99101.25
2022-11-04T11:49:30.607Z,99117.66
2022-11-04T11:52:22.804Z,99100.84
2022-11-04T11:54:53.532Z,99118.31
2022-11-04T12:00:48.672Z,99130.22
2022-11-04T12:03:31.196Z,99116.28
2022-11-04T12:09:41.511Z,99140.50
2022-11-04T12:12:27.304Z,99137.00
2022-11-04T12:15:09.323Z,99138.84
2022-11-04T12:18:23.897Z,99152.59
2022-11-04T12:21:03.427Z,99152.59
2022-11-04T12:24:03.254Z,99151.78
2022-11-04T12:26:41.990Z,99137.44
2022-11-04T12:29:47.679Z,99139.47
2022-11-04T12:32:35.239Z,99137.41
2022-11-04T12:35:12.183Z,99142.34
2022-11-04T12:38:01.826Z,99128.38
2022-11-04T12:40:37.851Z,99138.84
2022-11-04T12:43:23.113Z,99139.88
2022-11-04T12:46:03.637Z,99159.59
2022-11-04T12:48:57.047Z,99151.59
2022-11-04T12:52:00.435Z,99134.72
2022-11-04T12:54:45.631Z,99152.38
2022-11-04T12:57:33.481Z,99147.25
2022-11-04T13:00:14.335Z,99142.13
2022-11-04T13:02:51.068Z,99137.00
2022-11-04T13:05:23.943Z,99144.19
2022-11-04T13:08:17.201Z,99147.69
2022-11-04T13:10:54.986Z,99121.44
2022-11-04T13:13:32.006Z,99150.56
2022-11-04T13:16:03.568Z,99139.88
2022-11-04T13:18:35.488Z,99142.53
2022-11-04T13:21:10.214Z,99157.34
2022-11-04T13:23:52.652Z,99152.63
2022-11-04T13:26:19.799Z,99157.94
2022-11-04T13:29:04.293Z,99147.88
2022-11-04T13:31:57.839Z,99165.75
2022-11-04T13:34:43.497Z,99160.59
2022-11-04T13:37:37.888Z,99164.09
2022-11-04T13:40:15.566Z,99159.19
2022-11-04T13:43:21.191Z,99164.72
2022-11-04T13:45:55.368Z,99175.19
2022-11-04T13:48:27.775Z,99180.53
2022-11-04T13:51:07.461Z,99174.16
2022-11-04T13:53:57.300Z,99184.84
2022-11-04T13:56:33.448Z,99167.19
2022-11-04T14:00:11.055Z,99187.31
2022-11-04T14:02:39.900Z,99182.78
2022-11-04T14:05:28.725Z,99183.41
2022-11-04T14:08:01.782Z,99184.44
2022-11-04T14:10:50.505Z,99186.06
2022-11-04T14:13:27.452Z,99191.63
2022-11-04T14:16:26.024Z,99180.13
2022-11-04T14:18:54.386Z,99185.66
2022-11-04T14:21:24.444Z,99194.50
2022-11-04T14:23:56.654Z,99171.31
2022-11-04T14:27:21.199Z,99166.16
2022-11-04T14:30:33.757Z,99191.03
2022-11-04T14:33:53.695Z,99202.53
2022-11-04T14:36:39.431Z,99179.31
2022-11-04T14:39:21.728Z,99209.50
2022-11-04T14:46:06.539Z,99214.22
2022-11-04T14:48:35.165Z,99175.63
2022-11-04T14:51:05.519Z,99195.13
2022-11-04T14:53:38.160Z,99215.66
2022-11-04T14:56:23.788Z,99177.47
2022-11-04T14:58:59.419Z,99206.44
2022-11-04T15:01:34.083Z,99207.25
2022-11-04T15:04:26.456Z,99213.41
2022-11-04T15:07:04.936Z,99230.66
2022-11-04T15:09:47.387Z,99212.41
2022-11-04T15:12:36.433Z,99216.69
2022-11-04T15:15:29.281Z,99199.88
2022-11-04T15:18:09.483Z,99212.78
2022-11-04T15:20:41.602Z,99230.88
2022-11-04T15:23:14.874Z,99220.00
2022-11-04T15:25:53.674Z,99234.16
2022-11-04T15:28:38.973Z,99197.19
2022-11-04T15:31:17.499Z,99202.72
2022-11-04T15:33:47.044Z,99174.97
2022-11-04T15:36:20.198Z,99202.53
2022-11-04T15:39:14.731Z,99221.00
2022-11-04T15:42:03.650Z,99226.75
2022-11-04T15:44:33.358Z,99228.78
2022-11-04T15:47:46.593Z,99247.31
2022-11-04T15:50:29.275Z,99248.13
2022-11-04T15:52:56.734Z,99230.84
2022-11-04T15:55:49.117Z,99248.53
2022-11-04T15:58:41.763Z,99250.78
2022-11-04T16:01:17.242Z,99245.47
2022-11-04T16:03:55.804Z,99239.72
2022-11-04T16:06:37.965Z,99263.34
2022-11-04T16:09:20.306Z,99259.22
2022-11-04T16:12:15.400Z,99264.97
2022-11-04T16:14:53.545Z,99246.91
2022-11-04T16:17:21.726Z,99268.88
2022-11-04T16:20:50.388Z,99263.31
2022-11-04T16:23:21.567Z,99255.94
2022-11-04T16:26:07.227Z,99263.75
2022-11-04T16:28:42.345Z,99281.00
2022-11-04T16:31:23.206Z,99264.97
2022-11-04T16:33:50.866Z,99244.22
2022-11-04T16:36:23.836Z,99272.97
2022-11-04T16:38:58.609Z,99286.75
2022-11-04T16:41:29.359Z,99278.75
2022-11-04T16:43:56.586Z,99266.81
2022-11-04T16:46:23.628Z,99276.06
2022-11-04T16:48:50.768Z,99294.75
2022-11-04T16:51:20.992Z,99279.34
2022-11-04T16:54:21.428Z,99280.78
2022-11-04T16:56:48.730Z,99288.59
2022-11-04T16:59:17.001Z,99256.53
2022-11-04T17:02:00.527Z,99295.16
2022-11-04T17:04:27.537Z,99282.84
2022-11-04T17:06:59.938Z,99283.88
2022-11-04T17:09:26.879Z,99288.19
2022-11-04T17:11:56.953Z,99272.38
2022-11-04T17:14:26.199Z,99294.97
2022-11-04T17:16:53.442Z,99278.53
2022-11-04T17:19:21.003Z,99299.50
2022-11-04T17:21:48.427Z,99293.72
2022-11-04T17:24:15.731Z,99261.25
2022-11-04T17:26:43.323Z,99280.78
2022-11-04T17:29:22.446Z,99296.19
2022-11-04T17:31:49.475Z,99298.66
2022-11-04T17:34:16.674Z,99291.06
2022-11-04T17:36:43.916Z,99281.41
2022-11-04T17:39:11.102Z,99302.78
2022-11-04T17:41:56.493Z,99307.50
2022-11-04T17:44:23.518Z,99279.56
2022-11-04T17:46:50.610Z,99306.88
2022-11-04T17:49:20.776Z,99318.19
2022-11-04T17:51:50.839Z,99300.53
2022-11-04T17:54:25.083Z,99322.50
2022-11-04T17:56:52.187Z,99317.78
2022-11-04T17:59:19.384Z,99313.03
2022-11-04T18:01:46.687Z,99306.88
2022-11-04T18:04:17.264Z,99305.66
2022-11-04T18:07:09.921Z,99316.34
2022-11-04T18:09:43.455Z,99296.41
2022-11-04T18:12:30.847Z,99313.91
2022-11-04T18:14:57.968Z,99309.38
2022-11-04T18:17:41.670Z,99313.88
2022-11-04T18:20:13.944Z,99320.06
2022-11-04T18:23:06.557Z,99319.25
2022-11-04T18:25:40.105Z,99330.31
2022-11-04T18:28:07.361Z,99313.25
2022-11-04T18:30:34.378Z,99317.16
2022-11-04T18:33:01.577Z,99309.16
2022-11-04T18:35:35.649Z,99320.25
2022-11-04T18:38:03.065Z,99333.44
2022-11-04T18:40:30.717Z,99331.16
2022-11-04T18:42:57.683Z,99328.06
2022-11-04T18:45:24.947Z,99329.28
2022-11-04T18:47:51.887Z,99316.75
2022-11-04T18:50:26.758Z,99341.00
2022-11-04T18:52:55.856Z,99330.53
2022-11-04T18:55:23.949Z,99332.81
2022-11-04T18:57:55.524Z,99347.19
2022-11-04T19:00:22.812Z,99339.59
2022-11-04T19:02:50.070Z,99340.16
2022-11-04T19:05:17.545Z,99339.34
2022-11-04T19:07:44.526Z,99366.09
2022-11-04T19:10:16.114Z,99354.16
2022-11-04T19:13:01.389Z,99348.19
2022-11-04T19:15:34.181Z,99333.59
2022-11-04T19:18:03.263Z,99369.38
2022-11-04T19:20:30.571Z,99347.16
2022-11-04T19:22:57.487Z,99354.97
2022-11-04T19:25:24.908Z,99334.22
2022-11-04T19:28:26.791Z,99351.50
2022-11-04T19:30:40.208Z,99362.81
2022-11-04T19:33:08.346Z,99366.91
2022-11-04T19:35:59.865Z,99353.56
2022-11-04T19:38:27.309Z,99363.22
2022-11-04T19:40:55.697Z,99373.09
2022-11-04T19:43:26.230Z,99373.50
2022-11-04T19:45:53.349Z,99375.56
2022-11-04T19:48:20.369Z,99360.34
2022-11-04T19:50:49.429Z,99367.94
2022-11-04T19:53:17.284Z,99360.31
2022-11-04T19:55:53.142Z,99371.25
2022-11-04T19:58:22.557Z,99371.44
2022-11-04T20:00:49.991Z,99383.56
2022-11-04T20:03:17.659Z,99366.31
2022-11-04T20:05:45.225Z,99400.63
2022-11-04T20:08:12.780Z,99387.88
2022-11-04T20:10:42.952Z,99379.47
2022-11-04T20:13:36.955Z,99391.78
2022-11-04T20:16:13.989Z,99385.22
2022-11-04T20:18:40.895Z,99387.88
2022-11-04T20:21:07.969Z,99407.00
2022-11-04T20:23:34.949Z,99395.28
2022-11-04T20:26:21.032Z,99414.63
2022-11-04T20:28:48.274Z,99415.22
2022-11-04T20:31:20.764Z,99416.44
2022-11-04T20:33:48.847Z,99409.25
2022-11-04T20:36:18.568Z,99411.31
2022-11-04T20:38:48.293Z,99399.97
2022-11-04T20:41:20.135Z,99414.56
2022-11-04T20:43:48.665Z,99404.69
2022-11-04T20:46:22.424Z,99412.91
2022-11-04T20:48:50.613Z,99404.28
2022-11-04T20:51:31.160Z,99416.41
2022-11-04T20:54:00.753Z,99404.47
2022-11-04T20:56:32.836Z,99402.22
2022-11-04T20:59:00.760Z,99414.16
2022-11-04T21:01:30.675Z,99402.41
2022-11-04T21:04:15.133Z,99425.44
2022-11-04T21:06:42.703Z,99415.56
2022-11-04T21:09:12.799Z,99412.72
2022-11-04T21:11:41.185Z,99423.38
2022-11-04T21:14:11.551Z,99428.72
2022-11-04T21:16:38.631Z,99412.91
2022-11-04T21:19:06.855Z,99422.75
2022-11-04T21:21:33.870Z,99414.91
2022-11-04T21:24:04.121Z,99429.97
2022-11-04T21:26:34.320Z,99439.22
2022-11-04T21:29:06.698Z,99425.03
2022-11-04T21:31:35.398Z,99425.44
2022-11-04T21:34:09.208Z,99419.06
2022-11-04T21:36:37.387Z,99425.03
2022-11-04T21:39:05.334Z,99434.28
2022-11-04T21:41:33.868Z,99449.91
2022-11-04T21:44:03.085Z,99440.03
2022-11-04T21:46:31.895Z,99449.06
2022-11-04T21:48:59.473Z,99466.31
2022-11-04T21:51:31.725Z,99445.56
2022-11-04T21:53:59.389Z,99454.81
2022-11-04T21:56:28.536Z,99456.44
2022-11-04T21:58:56.048Z,99452.47
2022-11-04T22:01:26.442Z,99475.50
2022-11-04T22:03:56.009Z,99454.97
2022-11-04T22:06:23.061Z,99451.66
2022-11-04T22:08:54.429Z,99449.59
2022-11-04T22:11:23.273Z,99463.41
2022-11-04T22:13:54.490Z,99448.16
2022-11-04T22:16:23.801Z,99450.19
2022-11-04T22:18:56.951Z,99454.78
2022-11-04T22:21:24.874Z,99468.38
2022-11-04T22:23:51.981Z,99449.81
2022-11-04T22:26:30.559Z,99468.16
2022-11-04T22:28:58.259Z,99460.94
2022-11-04T22:31:27.716Z,99471.22
2022-11-04T22:33:56.662Z,99446.50
2022-11-04T22:36:23.935Z,99477.34
2022-11-04T22:38:50.955Z,99467.06
2022-11-04T22:41:20.879Z,99480.84
2022-11-04T22:43:50.587Z,99470.34
2022-11-04T22:46:23.419Z,99475.69
2022-11-04T22:48:50.578Z,99470.56
2022-11-04T22:51:18.258Z,99475.28
2022-11-04T22:53:47.287Z,99472.38
2022-11-04T22:56:16.675Z,99476.09
2022-11-04T22:58:45.585Z,99478.34
2022-11-04T23:01:14.845Z,99474.44
2022-11-04T23:03:42.280Z,99474.03
2022-11-04T23:06:10.559Z,99485.75
2022-11-04T23:08:38.908Z,99476.09
2022-11-04T23:11:34.692Z,99480.59
2022-11-04T23:14:21.221Z,99493.38
2022-11-04T23:17:10.820Z,99488.19
2022-11-04T23:19:38.731Z,99490.06
2022-11-04T23:22:25.209Z,99506.91
2022-11-04T23:25:09.586Z,99496.63
2022-11-04T23:28:04.195Z,99504.06
2022-11-04T23:30:59.527Z,99497.25
2022-11-04T23:33:45.144Z,99518.19
2022-11-04T23:36:31.142Z,99509.13
2022-11-04T23:38:58.085Z,99499.88
2022-11-04T23:41:43.710Z,99515.50
2022-11-04T23:44:35.290Z,99521.06
2022-11-04T23:47:20.873Z,99512.22
2022-11-04T23:50:06.230Z,99501.56
2022-11-04T23:52:52.363Z,99500.97
2022-11-04T23:55:37.811Z,99521.97
2022-11-04T23:58:39.975Z,99526.25
